Aviation Digital Data Service (ADDS)

Output produced by METARs form (1050 UTC 19 January 2019)
found at http://www.aviationweather.gov/metar/data/
 
KAWO 190956Z AUTO 14024KT 10SM OVC019 09/08 A2985 RMK AO2 PK WND 14026/0956 RAE36 SLP112 P0005 T00940078
KBLI 190953Z AUTO 10SM BKN021 BKN027 OVC038 11/07 A2980 RMK AO2 PK WND 16029/0926 RAE08B29E45 SLP097 P0001 T01060067
KBLI 190520Z 1906/2006 04009KT P6SM -RA OVC040 
     FM191300 18013G22KT P6SM -SHRA BKN025 OVC050 
     FM191700 19010G17KT P6SM VCSH SCT025 BKN050 
     FM192300 18006KT P6SM BKN050
       
KPWT 191035Z AUTO 19012KT 10SM FEW004 BKN009 OVC055 08/08 A2992 RMK AO2 RAB04E17 CIG 007V016 P0000
KPWT 190720Z 1907/2006 00000KT 4SM -RA BR FEW003 BKN007 OVC020 
     FM190900 20012G20KT 4SM -RA BR BKN009 OVC015 
     FM191500 20012G20KT P6SM -SHRA BKN025 OVC050 
     FM191800 20012G20KT P6SM VCSH SCT025 OVC050 
     FM200200 20003KT P6SM SCT025 BKN050
       
KBVS 191035Z AUTO 16009G14KT 10SM OVC013 10/08 A2987 RMK A01
KCLS 191035Z AUTO 32004KT 5SM BR FEW011 OVC023 10/10 A2997 RMK AO2
KDEW 191037Z AUTO 00000KT 3SM -SN BR OVC009 01/00 A3004 RMK AO2 UPE13SNB13 P0003 T00060000
KELN 191016Z AUTO 29005KT 3SM BR OVC015 01/00 A3000 RMK AO2 T00110000
KEPH 191013Z AUTO 36006KT 9SM OVC008 03/03 A3000 RMK AO2 T00330028 $
KPAE 191037Z AUTO 14020G29KT 10SM FEW008 BKN013 09/08 A2988 RMK AO2 PK WND 15029/1033 T00940078
KPAE 190818Z 1908/2006 10007KT P6SM -RA OVC007 
     FM191000 17018G28KT P6SM -RA BKN020 OVC035 
     FM191500 19012KT P6SM VCSH SCT050 BKN100 
     FM200200 18006KT P6SM SCT050 BKN100
       
KFHR 191009Z AUTO 16010KT 10SM FEW012 BKN025 OVC031 09/07 A2984 RMK AO2 PRESRR T00890067
KHQM 190953Z AUTO 22014KT 5SM BR FEW024 BKN040 OVC055 11/09 A2993 RMK AO2 PK WND 22026/0913 RAB02E35B43E52 SLP139 P0000 T01060089
KHQM 190820Z 1908/2006 20018G28KT 3SM -SHRA BR SCT010 OVC040 
     FM191200 22012KT P6SM VCSH SCT025 OVC050 
     FM191900 22009KT P6SM SCT025 BKN050 
     FM200300 09004KT P6SM BKN050
       
KKLS 191031Z AUTO VRB04KT 6SM RA BR SCT004 BKN012 OVC027 08/08 A3002 RMK AO2 RAE0957B15 P0003
KMWH 190952Z AUTO 06003KT 8SM BKN006 OVC011 04/03 A3001 RMK AO2 RAB0859E49 CIG 006V009 SLP169 P0002 T00390028
KMWH 190605Z 1906/2006 33003KT P6SM -RA OVC020 
     FM190800 VRB05KT 5SM -RA BR FEW009 OVC018 
     FM191000 16004KT 2SM BR OVC005 
     FM191900 21010KT P6SM BKN010 
     FM192100 22006KT P6SM SCT010 BKN200 
     FM200400 VRB03KT 5SM BR BCFG FEW002
       
KOLM 190954Z AUTO 24008KT 5SM -RA BR FEW008 BKN020 OVC034 09/08 A2994 RMK AO2 RAB37 PRESRR SLP138 P0002 T00940083
KOLM 190820Z 1908/2006 21010KT 6SM -SHRA BR SCT008 OVC025 
     FM191600 22010KT P6SM VCSH SCT025 BKN050 
     FM200400 20003KT 5SM BR SCT025 BKN050
       
KOMK 191023Z AUTO 17004KT 10SM BKN013 OVC036 02/02 A3002 RMK AO2 UPE09 P0000 T00170017
KPSC 191039Z AUTO 28003KT 6SM BR FEW003 BKN047 OVC070 06/06 A3003 RMK AO2 T00560056 $
KPSC 190537Z 1906/2006 20007KT 6SM -RA BR OVC040 
     FM191500 23009KT P6SM OVC060
       
KCLM 191044Z AUTO 00000KT 1 3/4SM BR SCT065 05/04 A2985 RMK AO2 RAE22 P0000 T00500039
KCLM 190520Z 1906/2006 27005KT P6SM VCSH SCT060 BKN080 OVC090 
     FM191200 27012KT P6SM SCT050 BKN080 
     FM191800 29012KT P6SM SCT050 SCT100 
     FM200400 24004KT P6SM SCT250
       
K0S9 191035Z AUTO 26003KT 10SM SCT011 SCT095 07/06 A2986 RMK AO2
KPUW 191025Z AUTO 10010KT 10SM OVC028 02/01 A3007 RMK AO2 RAE0907B0939B0950E06SNB0907E0939 P0006 T00170006 $
KPUW 190648Z 1907/2006 11010KT P6SM OVC080 
     FM190730 13012KT P6SM -RA OVC015 WS020/20030KT 
     FM190900 13012KT 6SM -RA BR OVC025 WS020/21030KT 
     FM191800 22014KT P6SM BKN150 
     FM200000 21005KT P6SM FEW005
       
KPLU 191035Z AUTO 20005G12KT 6SM -DZ FEW009 SCT031 BKN039 10/10 A2995 RMK AO2
KUIL 190953Z AUTO 21007KT 170V240 8SM FEW021 BKN035 OVC042 09/M01 A2986 RMK AO2 SLP112 T00941011
KRNT 190953Z AUTO 14005KT 10SM BKN031 BKN040 OVC047 08/08 A2991 RMK AO2 RAB0854E30 SLP132 P0000 T00830083
KRLD 191035Z AUTO 00000KT 10SM OVC007 05/05 A3004 RMK AO2 T00530051
KBFI 190953Z 17008KT 10SM BKN030 OVC037 09/08 A2990 RMK AO2 RAB31E42 SLP125 P0000 T00940078
KBFI 190720Z 1907/2006 15007KT 5SM -RA BR FEW023 OVC028 
     FM190800 16012KT P6SM -RA BKN028 OVC045 
     FM191300 18012G20KT P6SM -SHRA BKN028 BKN050 
     FM191800 19010KT P6SM VCSH SCT030 BKN050 
     FM200200 16003KT P6SM SCT030 OVC050
       
KSEA 190953Z 17009KT 6SM -RA BR FEW006 BKN027 09/07 A2990 RMK AO2 SLP131 P0000 T00890072
KSEA 190906Z 1909/2012 17012KT 4SM -RA BR FEW006 OVC030 
     FM191000 18015G24KT 5SM -RA BKN025 OVC040 
     FM191300 20012G22KT P6SM -SHRA BKN025 BKN050 
     FM191600 21012KT P6SM VCSH SCT025 BKN050 
     FM200200 15005KT P6SM SCT025 OVC050
       
KSHN 190953Z AUTO 20003KT 10SM SCT018 BKN036 OVC055 07/06 A2990 RMK AO2 RAE13 PRESRR SLP127 P0002 T00670056
KSFF 190953Z AUTO 00000KT 10SM UP FEW015 OVC026 03/01 A3007 RMK AO2 RAE42UPB51 SLP193 P0003 T00280011
KSFF 191031Z 1911/2006 00000KT 6SM -RA BR OVC015 WS020/21030KT 
     FM191500 21005KT P6SM OVC012 
     FM192200 22007KT P6SM SCT020 BKN050 
     FM200300 20005KT P6SM BKN015
       
KGEG 190953Z 15008KT 5SM -SN BR FEW008 BKN014 OVC019 01/M01 A3005 RMK AO2 RAE12SNB05 SLP190 P0004 T00111006
KGEG 191028Z 1910/2006 15008KT 5SM -SNRA BR FEW008 BKN014 OVC019 
     FM191100 16008KT 4SM -RA BR OVC008 WS020/21030KT 
     FM191500 18010KT 6SM BR OVC006 
     FM191800 20012KT P6SM OVC012 
     FM192200 23009KT P6SM SCT015 BKN035 
     FM200300 21006KT 6SM BR BKN009
       
K1S5 191035Z AUTO 00000KT 10SM BKN006 OVC010 03/03 A3003 RMK AO2 T00300027
KTIW 191041Z AUTO 22006KT 10SM -RA BKN007 BKN017 OVC025 09/08 A2996 RMK AO2 P0004 T00890083
KVUO 190953Z AUTO 12008KT 10SM BKN007 OVC017 07/06 A2999 RMK AO2 SLP156 T00720061
KALW 190953Z AUTO 18013KT 10SM -RA FEW022 OVC037 11/04 A3001 RMK AO2 SLP165 P0001 T01110044
KALW 190537Z 1906/2006 16010KT 6SM -RA BR OVC040 
     FM191800 23010KT P6SM OVC050
       
KEAT 191017Z AUTO 24003KT 1/4SM FZFG VV004 M01/M01 A3003 RMK AO2 T10061011 $
KEAT 190537Z 1906/2006 31003KT 4SM -RA BR SCT002 OVC020 
     TEMPO 1906/1909 2SM BR BKN002 
     FM190900 VRB02KT 1/2SM FG OVC003 
     FM191700 22013KT 3SM BR BKN005 
     FM192000 VRB03KT 6SM BR SCT005 BKN008 
     FM192200 30007KT P6SM SCT010
       
KS52 191035Z AUTO 00000KT 10SM -RA OVC005 00/00 A3000 RMK AO2 T00011002
KYKM 190953Z AUTO 24003KT 10SM OVC014 02/01 A3002 RMK AO2 RAE01 SLP175 P0000 T00170006
KYKM 190833Z 1909/2006 25005KT 6SM -RA BR SCT015 OVC030 
     TEMPO 1909/1912 3SM -RA BR OVC015 
     FM191300 25006KT 5SM BR OVC030 
     FM191600 26007KT P6SM OVC040